createdAt,value
2023-03-24T00:00:02.795Z,2.30
2023-03-24T00:02:29.489Z,2.63
2023-03-24T00:04:58.790Z,2.10
2023-03-24T00:07:25.986Z,2.20
2023-03-24T00:09:54.054Z,2.40
2023-03-24T00:12:20.633Z,2.65
2023-03-24T00:14:47.291Z,2.20
2023-03-24T00:17:13.998Z,2.47
2023-03-24T00:19:40.986Z,2.08
2023-03-24T00:22:08.690Z,2.10
2023-03-24T00:24:35.601Z,2.10
2023-03-24T00:27:03.481Z,2.42
2023-03-24T00:29:30.078Z,1.90
2023-03-24T00:31:56.709Z,2.65
2023-03-24T00:34:23.372Z,2.90
2023-03-24T00:36:51.197Z,2.30
2023-03-24T00:39:21.083Z,2.42
2023-03-24T00:41:48.630Z,2.20
2023-03-24T00:44:19.588Z,2.17
2023-03-24T00:46:55.516Z,2.45
2023-03-24T00:49:42.248Z,2.25
2023-03-24T00:52:10.966Z,2.22
2023-03-24T00:54:39.964Z,2.25
2023-03-24T00:57:07.977Z,2.28
2023-03-24T00:59:42.559Z,1.90
2023-03-24T01:02:11.917Z,2.53
2023-03-24T01:04:39.571Z,2.05
2023-03-24T01:07:11.007Z,2.20
2023-03-24T01:09:37.951Z,2.38
2023-03-24T01:12:04.818Z,2.05
2023-03-24T01:14:32.548Z,2.30
2023-03-24T01:16:59.905Z,2.25
2023-03-24T01:19:26.622Z,2.05
2023-03-24T01:21:54.350Z,2.20
2023-03-24T01:24:25.534Z,2.03
2023-03-24T01:26:52.413Z,2.20
2023-03-24T01:29:19.067Z,2.50
2023-03-24T01:31:45.692Z,2.20
2023-03-24T01:34:12.300Z,2.53
2023-03-24T01:36:38.929Z,2.40
2023-03-24T01:39:05.629Z,2.50
2023-03-24T01:41:35.910Z,1.95
2023-03-24T01:44:33.373Z,2.10
2023-03-24T01:47:00.931Z,1.83
2023-03-24T01:49:36.778Z,2.00
2023-03-24T01:52:05.623Z,2.60
2023-03-24T01:54:48.287Z,2.13
2023-03-24T01:57:23.812Z,2.00
2023-03-24T01:59:53.039Z,2.03
2023-03-24T02:02:22.112Z,1.85
2023-03-24T02:04:54.135Z,2.00
2023-03-24T02:07:40.614Z,2.00
2023-03-24T02:10:13.335Z,2.05
2023-03-24T02:12:41.651Z,2.15
2023-03-24T02:15:09.530Z,2.08
2023-03-24T02:18:00.563Z,1.92
2023-03-24T02:20:46.024Z,2.05
2023-03-24T02:23:37.421Z,1.92
2023-03-24T02:26:31.941Z,2.20
2023-03-24T02:29:03.591Z,2.38
2023-03-24T02:31:47.732Z,1.92
2023-03-24T02:34:32.841Z,2.40
2023-03-24T02:37:18.884Z,1.70
2023-03-24T02:40:05.148Z,1.95
2023-03-24T02:43:03.475Z,2.25
2023-03-24T02:45:58.747Z,2.30
2023-03-24T02:48:41.617Z,3.33
2023-03-24T02:51:16.884Z,2.20
2023-03-24T02:54:07.348Z,2.40
2023-03-24T02:56:52.676Z,2.10
2023-03-24T02:59:31.313Z,2.75
2023-03-24T03:02:15.952Z,2.30
2023-03-24T03:04:46.248Z,2.10
2023-03-24T03:07:16.900Z,2.35
2023-03-24T03:09:56.425Z,2.33
2023-03-24T03:12:23.519Z,2.53
2023-03-24T03:14:58.741Z,2.50
2023-03-24T03:17:30.822Z,2.42
2023-03-24T03:20:07.954Z,2.13
2023-03-24T03:22:43.190Z,2.72
2023-03-24T03:25:12.059Z,2.42
2023-03-24T03:27:40.264Z,2.45
2023-03-24T03:30:10.924Z,2.92
2023-03-24T03:32:40.351Z,2.78
2023-03-24T03:35:23.061Z,2.15
2023-03-24T03:38:10.149Z,2.55
2023-03-24T03:40:40.077Z,2.35
2023-03-24T03:43:06.708Z,2.50
2023-03-24T03:45:34.500Z,2.72
2023-03-24T03:48:02.148Z,2.50
2023-03-24T03:50:29.064Z,2.80
2023-03-24T03:52:55.684Z,2.97
2023-03-24T03:55:22.450Z,2.13
2023-03-24T03:57:49.378Z,2.95
2023-03-24T04:00:20.497Z,2.90
2023-03-24T04:03:15.246Z,2.70
2023-03-24T04:06:02.004Z,3.22
2023-03-24T04:08:37.676Z,3.28
2023-03-24T04:11:32.994Z,2.75
2023-03-24T04:14:11.650Z,2.95
2023-03-24T04:16:56.348Z,3.63
2023-03-24T04:19:41.829Z,3.20
2023-03-24T04:22:38.431Z,3.53
2023-03-24T04:25:14.381Z,3.38
2023-03-24T04:28:15.256Z,3.50
2023-03-24T04:30:46.077Z,3.42
2023-03-24T04:33:32.771Z,3.60
2023-03-24T04:36:06.804Z,3.42
2023-03-24T04:38:36.281Z,3.35
2023-03-24T04:41:04.121Z,3.75
2023-03-24T04:43:36.148Z,3.22
2023-03-24T04:46:05.186Z,3.65
2023-03-24T04:48:31.789Z,3.58
2023-03-24T04:51:00.725Z,3.50
2023-03-24T04:53:27.892Z,3.92
2023-03-24T04:56:13.262Z,4.13
2023-03-24T04:58:39.809Z,4.22
2023-03-24T05:01:06.567Z,3.92
2023-03-24T05:03:38.102Z,4.10
2023-03-24T05:06:05.947Z,4.00
2023-03-24T05:08:33.241Z,3.67
2023-03-24T05:10:59.787Z,3.58
2023-03-24T05:13:26.411Z,4.70
2023-03-24T05:15:53.939Z,3.70
2023-03-24T05:18:20.552Z,4.53
2023-03-24T05:20:47.132Z,4.25
2023-03-24T05:23:13.815Z,4.25
2023-03-24T05:25:40.384Z,4.65
2023-03-24T05:28:06.939Z,4.53
2023-03-24T05:30:33.732Z,3.95
2023-03-24T05:33:00.496Z,3.92
2023-03-24T05:35:27.171Z,3.83
2023-03-24T05:37:53.802Z,3.28
2023-03-24T05:40:20.684Z,3.72
2023-03-24T05:42:49.622Z,3.20
2023-03-24T05:45:16.641Z,3.13
2023-03-24T05:47:43.313Z,3.22
2023-03-24T05:50:10.623Z,3.00
2023-03-24T05:52:37.176Z,3.00
2023-03-24T05:55:04.138Z,3.35
2023-03-24T05:57:30.727Z,3.10
2023-03-24T05:59:57.766Z,2.75
2023-03-24T06:02:25.109Z,3.58
2023-03-24T06:04:52.156Z,3.13
2023-03-24T06:07:18.960Z,3.40
2023-03-24T06:09:50.997Z,3.08
2023-03-24T06:12:18.096Z,3.30
2023-03-24T06:14:45.582Z,3.13
2023-03-24T06:17:15.166Z,2.45
2023-03-24T06:19:48.876Z,1.88
2023-03-24T06:22:18.948Z,1.50
2023-03-24T06:24:47.014Z,1.70
2023-03-24T06:27:14.292Z,1.73
2023-03-24T06:29:42.493Z,1.60
2023-03-24T06:32:09.681Z,1.65
2023-03-24T06:34:37.254Z,1.55
2023-03-24T06:37:03.865Z,1.60
2023-03-24T06:39:30.510Z,1.45
2023-03-24T06:41:57.079Z,1.55
2023-03-24T06:44:23.723Z,1.40
2023-03-24T06:46:50.361Z,1.58
2023-03-24T06:49:16.916Z,1.42
2023-03-24T06:51:43.549Z,1.45
2023-03-24T06:54:10.157Z,1.42
2023-03-24T06:56:36.714Z,1.70
2023-03-24T06:59:03.866Z,1.35
2023-03-24T07:01:30.758Z,1.40
2023-03-24T07:03:57.422Z,1.50
2023-03-24T07:06:24.074Z,1.25
2023-03-24T07:08:50.717Z,1.50
2023-03-24T07:11:17.277Z,1.20
2023-03-24T07:13:43.829Z,1.30
2023-03-24T07:16:10.425Z,1.40
2023-03-24T07:18:37.072Z,1.08
2023-03-24T07:21:04.153Z,1.30
2023-03-24T07:23:33.160Z,1.20
2023-03-24T07:26:00.071Z,1.15
2023-03-24T07:28:26.710Z,1.50
2023-03-24T07:30:55.253Z,1.40
2023-03-24T07:33:24.327Z,1.45
2023-03-24T07:35:54.919Z,1.55
2023-03-24T07:38:21.532Z,1.52
2023-03-24T07:40:48.265Z,1.35
2023-03-24T07:43:15.811Z,1.50
2023-03-24T07:45:44.844Z,1.52
2023-03-24T07:48:12.305Z,1.92
2023-03-24T07:50:38.937Z,2.03
2023-03-24T07:53:05.850Z,2.00
2023-03-24T07:55:32.453Z,2.15
2023-03-24T07:57:59.069Z,1.92
2023-03-24T08:00:25.814Z,2.67
2023-03-24T08:02:53.954Z,1.90
2023-03-24T08:05:22.794Z,2.42
2023-03-24T08:07:53.636Z,2.42
2023-03-24T08:10:22.783Z,2.70
2023-03-24T08:12:49.410Z,2.25
2023-03-24T08:15:16.282Z,2.30
2023-03-24T08:17:42.956Z,2.25
2023-03-24T08:20:15.270Z,2.58
2023-03-24T08:22:43.623Z,2.67
2023-03-24T08:25:12.352Z,2.58
2023-03-24T08:27:40.136Z,2.22
2023-03-24T08:30:10.526Z,2.38
2023-03-24T08:32:37.901Z,2.30
2023-03-24T08:35:05.241Z,2.55
2023-03-24T08:37:32.216Z,3.08
2023-03-24T08:40:05.412Z,2.40
2023-03-24T08:42:32.031Z,2.67
2023-03-24T08:44:58.590Z,2.50
2023-03-24T08:47:25.214Z,2.42
2023-03-24T08:49:57.646Z,2.22
2023-03-24T08:52:26.985Z,2.20
2023-03-24T08:54:53.669Z,2.15
2023-03-24T08:57:21.697Z,2.20
2023-03-24T08:59:50.176Z,2.35
2023-03-24T09:02:17.982Z,2.25
2023-03-24T09:04:45.939Z,2.45
2023-03-24T09:07:13.035Z,2.40
2023-03-24T09:09:40.271Z,2.45
2023-03-24T09:12:07.033Z,2.50
2023-03-24T09:14:33.721Z,2.50
2023-03-24T09:17:00.355Z,2.45
2023-03-24T09:19:26.949Z,2.50
2023-03-24T09:21:53.565Z,2.92
2023-03-24T09:24:20.195Z,2.92
2023-03-24T09:26:46.830Z,2.75
2023-03-24T09:29:13.386Z,3.28
2023-03-24T09:31:40.068Z,2.58
2023-03-24T09:34:06.723Z,2.70
2023-03-24T09:36:33.327Z,2.78
2023-03-24T09:38:59.871Z,3.88
2023-03-24T09:41:32.556Z,2.80
2023-03-24T09:44:05.272Z,3.33
2023-03-24T09:46:36.033Z,2.72
2023-03-24T09:49:03.332Z,2.33
2023-03-24T09:51:34.079Z,2.72
2023-03-24T09:54:13.076Z,2.70
2023-03-24T09:56:42.766Z,2.60
2023-03-24T09:59:22.312Z,2.75
2023-03-24T10:01:49.572Z,2.83
2023-03-24T10:04:22.299Z,3.03
2023-03-24T10:06:53.393Z,2.42
2023-03-24T10:09:34.984Z,2.30
2023-03-24T10:12:23.300Z,2.70
2023-03-24T10:17:37.414Z,2.47
2023-03-24T10:20:28.114Z,2.30
2023-03-24T10:23:03.257Z,1.90
2023-03-24T10:25:29.949Z,1.65
2023-03-24T10:28:18.301Z,2.60
2023-03-24T10:33:13.596Z,2.10
2023-03-24T10:35:49.441Z,1.63
2023-03-24T10:38:21.705Z,1.33
2023-03-24T10:40:48.870Z,1.80
2023-03-24T10:43:18.900Z,1.83
2023-03-24T10:45:49.318Z,1.80
2023-03-24T10:48:44.914Z,1.88
2023-03-24T10:51:16.564Z,2.10
2023-03-24T10:53:47.910Z,1.75
2023-03-24T10:57:02.015Z,2.00
2023-03-24T10:59:32.197Z,2.30
2023-03-24T11:02:11.312Z,1.40
2023-03-24T11:04:39.391Z,1.63
2023-03-24T11:07:14.358Z,1.55
2023-03-24T11:09:43.558Z,1.73
2023-03-24T11:12:27.750Z,1.48
2023-03-24T11:15:23.308Z,2.30
2023-03-24T11:17:59.018Z,1.92
2023-03-24T11:20:30.264Z,1.85
2023-03-24T11:23:06.646Z,1.67
2023-03-24T11:25:37.665Z,2.38
2023-03-24T11:28:10.050Z,1.30
2023-03-24T11:30:46.524Z,1.80
2023-03-24T11:33:35.081Z,1.55
2023-03-24T11:36:35.739Z,1.58
2023-03-24T11:39:19.473Z,1.50
2023-03-24T11:42:10.408Z,1.55
2023-03-24T11:44:47.111Z,1.73
2023-03-24T11:47:17.991Z,2.00
2023-03-24T11:49:58.294Z,1.58
2023-03-24T11:52:29.467Z,1.30
2023-03-24T11:54:56.171Z,1.73
2023-03-24T11:57:55.449Z,1.63
2023-03-24T12:00:42.368Z,1.75
2023-03-24T12:03:20.844Z,1.55
2023-03-24T12:08:37.118Z,1.73
2023-03-24T12:11:57.927Z,1.23
2023-03-24T12:14:37.123Z,1.77
2023-03-24T12:17:13.009Z,1.10
2023-03-24T12:19:42.364Z,1.23
2023-03-24T12:22:15.424Z,1.27
2023-03-24T12:25:19.085Z,1.38
2023-03-24T12:28:03.150Z,1.27
2023-03-24T12:30:31.475Z,1.20
2023-03-24T12:33:27.705Z,1.65
2023-03-24T12:36:19.865Z,1.58
2023-03-24T12:39:18.280Z,1.23
2023-03-24T12:41:55.343Z,1.48
2023-03-24T12:44:43.547Z,1.60
2023-03-24T12:47:51.855Z,0.90
2023-03-24T12:50:42.772Z,1.40
2023-03-24T12:53:36.487Z,0.95
2023-03-24T12:56:14.234Z,1.27
2023-03-24T12:58:46.986Z,1.40
2023-03-24T13:01:18.637Z,1.20
2023-03-24T13:03:55.903Z,0.88
2023-03-24T13:06:38.291Z,1.10
2023-03-24T13:09:26.712Z,0.60
2023-03-24T13:14:40.344Z,1.60
2023-03-24T13:19:37.124Z,1.48
2023-03-24T13:22:05.435Z,1.92
2023-03-24T13:24:32.290Z,1.40
2023-03-24T13:27:17.738Z,1.33
2023-03-24T13:29:50.914Z,1.35
2023-03-24T13:32:37.614Z,1.45
2023-03-24T13:35:23.021Z,1.80
2023-03-24T13:37:55.693Z,1.65
2023-03-24T13:40:25.069Z,1.40
2023-03-24T13:43:00.564Z,1.55
2023-03-24T13:45:47.835Z,1.50
2023-03-24T13:48:35.933Z,1.80
2023-03-24T13:51:33.402Z,1.48
2023-03-24T13:54:06.293Z,1.48
2023-03-24T13:56:37.634Z,1.88
2023-03-24T13:59:27.411Z,1.17
2023-03-24T14:02:29.061Z,1.38
2023-03-24T14:04:58.953Z,1.40
2023-03-24T14:07:32.510Z,1.20
2023-03-24T14:10:23.457Z,1.20
2023-03-24T14:13:03.691Z,1.40
2023-03-24T14:15:37.283Z,1.77
2023-03-24T14:18:22.629Z,1.58
2023-03-24T14:21:09.659Z,1.58
2023-03-24T14:23:49.475Z,1.63
2023-03-24T14:26:30.275Z,1.33
2023-03-24T14:28:57.636Z,1.73
2023-03-24T14:31:29.293Z,1.58
2023-03-24T14:34:02.387Z,1.40
2023-03-24T14:36:39.517Z,1.73
2023-03-24T14:39:18.777Z,1.63
2023-03-24T14:41:47.189Z,1.20
2023-03-24T14:44:13.889Z,1.45
2023-03-24T14:46:47.549Z,1.30
2023-03-24T14:49:27.416Z,1.33
2023-03-24T14:52:15.682Z,1.50
2023-03-24T14:57:20.973Z,1.20
2023-03-24T14:59:52.813Z,1.13
2023-03-24T15:03:16.515Z,1.60
2023-03-24T15:05:43.326Z,1.33
2023-03-24T15:08:09.818Z,1.52
2023-03-24T15:10:42.583Z,1.77
2023-03-24T15:13:31.112Z,1.88
2023-03-24T15:15:57.987Z,1.40
2023-03-24T15:18:25.777Z,1.30
2023-03-24T15:20:52.852Z,1.52
2023-03-24T15:23:25.992Z,1.63
2023-03-24T15:25:54.625Z,1.27
2023-03-24T15:28:30.510Z,1.10
2023-03-24T15:31:01.339Z,1.60
2023-03-24T15:33:31.117Z,1.50
2023-03-24T15:35:59.249Z,1.48
2023-03-24T15:38:33.070Z,1.60
2023-03-24T15:41:12.751Z,1.60
2023-03-24T15:43:49.228Z,1.48
2023-03-24T15:46:27.556Z,1.63
2023-03-24T15:48:55.531Z,1.55
2023-03-24T15:51:50.876Z,1.80
2023-03-24T15:54:23.888Z,1.23
2023-03-24T15:57:13.003Z,1.08
2023-03-24T15:59:44.901Z,0.80
2023-03-24T16:02:24.613Z,0.98
2023-03-24T16:05:08.120Z,0.88
2023-03-24T16:07:37.721Z,1.02
2023-03-24T16:10:06.545Z,0.80
2023-03-24T16:12:37.223Z,1.15
2023-03-24T16:15:05.838Z,0.90
2023-03-24T16:17:33.095Z,0.80
2023-03-24T16:19:59.864Z,0.90
2023-03-24T16:22:26.593Z,0.90
2023-03-24T16:24:53.333Z,0.80
2023-03-24T16:27:19.946Z,1.25
2023-03-24T16:29:46.566Z,0.82
2023-03-24T16:32:13.176Z,0.88
2023-03-24T16:34:39.783Z,1.20
2023-03-24T16:37:08.007Z,0.80
2023-03-24T16:39:34.603Z,1.27
2023-03-24T16:42:01.214Z,0.90
2023-03-24T16:44:27.836Z,0.77
2023-03-24T16:46:55.032Z,0.80
2023-03-24T16:49:22.716Z,0.80
2023-03-24T16:51:50.098Z,1.33
2023-03-24T16:54:16.724Z,0.90
2023-03-24T16:56:43.448Z,1.20
2023-03-24T16:59:10.689Z,0.90
2023-03-24T17:01:42.121Z,1.10
2023-03-24T17:04:11.248Z,1.27
2023-03-24T17:06:43.877Z,1.00
2023-03-24T17:09:11.148Z,1.02
2023-03-24T17:11:40.521Z,1.00
2023-03-24T17:14:12.421Z,1.10
2023-03-24T17:16:43.674Z,1.35
2023-03-24T17:19:21.544Z,1.50
2023-03-24T17:21:56.845Z,1.23
2023-03-24T17:24:24.241Z,1.23
2023-03-24T17:26:50.850Z,1.27
2023-03-24T17:29:17.457Z,1.10
2023-03-24T17:31:44.147Z,0.80
2023-03-24T17:36:44.204Z,1.00
2023-03-24T17:39:16.157Z,1.20
2023-03-24T17:41:42.729Z,1.10
2023-03-24T17:44:09.861Z,1.15
2023-03-24T17:46:36.521Z,1.05
2023-03-24T17:49:03.156Z,1.52
2023-03-24T17:51:29.696Z,1.45
2023-03-24T17:53:56.260Z,1.20
2023-03-24T17:56:23.013Z,1.10
2023-03-24T17:58:50.011Z,1.45
2023-03-24T18:01:18.461Z,1.20
2023-03-24T18:06:13.107Z,1.40
2023-03-24T18:08:40.499Z,1.63
2023-03-24T18:11:09.412Z,2.45
2023-03-24T18:13:36.462Z,1.50
2023-03-24T18:16:19.859Z,1.55
2023-03-24T18:18:47.882Z,1.35
2023-03-24T18:21:14.710Z,1.77
2023-03-24T18:23:41.344Z,1.90
2023-03-24T18:26:08.385Z,1.75
2023-03-24T18:28:37.359Z,1.83
2023-03-24T18:31:09.476Z,1.65
2023-03-24T18:33:36.083Z,2.00
2023-03-24T18:36:03.267Z,1.70
2023-03-24T18:38:29.820Z,1.80
2023-03-24T18:41:00.701Z,1.70
2023-03-24T18:43:28.182Z,1.85
2023-03-24T18:45:54.806Z,1.60
2023-03-24T18:48:21.499Z,1.60
2023-03-24T18:50:51.923Z,2.08
2023-03-24T18:53:19.610Z,1.70
2023-03-24T18:55:47.852Z,2.03
2023-03-24T18:58:15.871Z,1.90
2023-03-24T19:00:43.791Z,2.40
2023-03-24T19:03:10.426Z,2.33
2023-03-24T19:05:37.158Z,2.40
2023-03-24T19:08:07.476Z,2.42
2023-03-24T19:10:37.922Z,2.80
2023-03-24T19:13:05.670Z,3.25
2023-03-24T19:15:32.818Z,2.78
2023-03-24T19:18:01.008Z,3.00
2023-03-24T19:20:29.096Z,3.22
2023-03-24T19:22:55.744Z,3.10
2023-03-24T19:25:23.031Z,3.10
2023-03-24T19:27:49.831Z,3.13
2023-03-24T19:30:18.272Z,2.88
2023-03-24T19:32:46.676Z,2.60
2023-03-24T19:37:40.454Z,3.03
2023-03-24T19:40:09.135Z,2.45
2023-03-24T19:42:38.808Z,2.70
2023-03-24T19:45:07.498Z,2.50
2023-03-24T19:47:34.252Z,2.80
2023-03-24T19:50:01.685Z,2.40
2023-03-24T19:52:28.826Z,2.47
2023-03-24T19:54:55.360Z,2.20
2023-03-24T19:57:22.059Z,2.72
2023-03-24T19:59:49.358Z,2.15
2023-03-24T20:02:17.355Z,2.22
2023-03-24T20:04:44.722Z,2.53
2023-03-24T20:07:11.720Z,2.13
2023-03-24T20:09:38.359Z,1.70
2023-03-24T20:12:05.676Z,1.63
2023-03-24T20:14:32.469Z,1.60
2023-03-24T20:16:59.630Z,1.52
2023-03-24T20:19:26.849Z,1.42
2023-03-24T20:21:53.513Z,1.95
2023-03-24T20:24:20.135Z,1.90
2023-03-24T20:26:48.334Z,1.52
2023-03-24T20:29:15.451Z,1.60
2023-03-24T20:31:42.956Z,1.58
2023-03-24T20:34:11.023Z,1.63
2023-03-24T20:36:38.500Z,1.20
2023-03-24T20:39:06.018Z,1.27
2023-03-24T20:41:33.118Z,1.58
2023-03-24T20:43:59.732Z,1.33
2023-03-24T20:46:26.364Z,1.48
2023-03-24T20:48:52.979Z,1.73
2023-03-24T20:51:19.667Z,1.50
2023-03-24T20:53:49.662Z,0.95
2023-03-24T20:56:18.182Z,1.27
2023-03-24T20:58:45.345Z,1.73
2023-03-24T21:01:20.527Z,1.30
2023-03-24T21:03:48.291Z,1.40
2023-03-24T21:06:16.035Z,1.40
2023-03-24T21:08:45.078Z,1.45
2023-03-24T21:11:11.948Z,1.50
2023-03-24T21:13:38.654Z,1.35
2023-03-24T21:16:08.725Z,1.50
2023-03-24T21:18:36.978Z,1.63
2023-03-24T21:21:04.615Z,1.73
2023-03-24T21:23:34.247Z,1.13
2023-03-24T21:26:02.000Z,1.55
2023-03-24T21:28:30.441Z,1.75
2023-03-24T21:31:09.297Z,1.52
2023-03-24T21:33:40.009Z,1.92
2023-03-24T21:36:11.374Z,1.55
2023-03-24T21:38:39.133Z,1.40
2023-03-24T21:41:06.504Z,1.80
2023-03-24T21:43:34.894Z,1.83
2023-03-24T21:46:03.485Z,2.20
2023-03-24T21:50:57.451Z,1.40
2023-03-24T21:53:26.073Z,1.45
2023-03-24T21:55:53.699Z,1.75
2023-03-24T21:58:20.705Z,1.40
2023-03-24T22:00:48.315Z,1.60
2023-03-24T22:03:15.776Z,1.70
2023-03-24T22:05:43.194Z,1.50
2023-03-24T22:08:10.507Z,1.33
2023-03-24T22:10:42.469Z,1.75
2023-03-24T22:13:10.445Z,1.40
2023-03-24T22:15:37.868Z,1.40
2023-03-24T22:18:04.632Z,1.00
2023-03-24T22:20:32.848Z,1.70
2023-03-24T22:23:03.392Z,1.58
2023-03-24T22:25:30.762Z,1.80
2023-03-24T22:27:57.332Z,1.50
2023-03-24T22:30:23.949Z,1.98
2023-03-24T22:32:50.730Z,1.17
2023-03-24T22:35:17.457Z,1.50
2023-03-24T22:37:44.050Z,1.50
2023-03-24T22:40:10.643Z,1.55
2023-03-24T22:42:37.346Z,1.48
2023-03-24T22:45:04.367Z,1.20
2023-03-24T22:47:31.000Z,1.42
2023-03-24T22:49:57.576Z,2.05
2023-03-24T22:52:24.121Z,1.50
2023-03-24T22:54:50.697Z,1.58
2023-03-24T22:57:18.763Z,1.38
2023-03-24T22:59:45.360Z,1.63
2023-03-24T23:02:12.022Z,1.35
2023-03-24T23:04:40.498Z,1.60
2023-03-24T23:07:07.771Z,1.40
2023-03-24T23:09:34.728Z,1.38
2023-03-24T23:12:01.584Z,1.17
2023-03-24T23:14:28.470Z,1.88
2023-03-24T23:16:56.337Z,1.50
2023-03-24T23:19:23.312Z,1.50
2023-03-24T23:21:50.017Z,1.20
2023-03-24T23:24:17.057Z,1.02
2023-03-24T23:26:43.894Z,1.60
2023-03-24T23:29:10.638Z,1.33
2023-03-24T23:31:37.232Z,1.35
2023-03-24T23:34:07.480Z,1.30
2023-03-24T23:36:34.280Z,1.52
2023-03-24T23:39:01.130Z,1.35
2023-03-24T23:41:27.758Z,1.38
2023-03-24T23:43:54.411Z,1.30
2023-03-24T23:46:21.993Z,1.30
2023-03-24T23:48:48.675Z,1.80
2023-03-24T23:51:15.360Z,1.42
2023-03-24T23:53:42.003Z,1.58
2023-03-24T23:56:11.086Z,1.67
2023-03-24T23:58:39.413Z,1.42
